createdAt,value
2023-05-02T00:00:47.436Z,38.1
2023-05-02T00:06:39.583Z,36.5
2023-05-02T00:13:41.495Z,40.6
2023-05-02T00:19:31.942Z,40.5
2023-05-02T00:25:24.003Z,41.7
2023-05-02T00:31:18.767Z,41.7
2023-05-02T00:37:10.875Z,39.2
2023-05-02T00:43:05.413Z,41.6
2023-05-02T00:48:57.315Z,40.7
2023-05-02T00:54:49.536Z,42.1
2023-05-02T01:00:41.402Z,38.5
2023-05-02T01:06:33.610Z,39.3
2023-05-02T01:12:25.951Z,38.2
2023-05-02T01:18:17.524Z,40.9
2023-05-02T01:24:10.637Z,42
2023-05-02T01:30:03.830Z,40.7
2023-05-02T01:35:55.980Z,43
2023-05-02T01:41:49.022Z,46.5
2023-05-02T01:47:41.204Z,45.6
2023-05-02T01:53:33.845Z,45.1
2023-05-02T01:59:26.214Z,43.8
2023-05-02T02:05:17.911Z,45.2
2023-05-02T02:11:09.968Z,44
2023-05-02T02:17:02.148Z,44.7
2023-05-02T02:22:54.278Z,47.3
2023-05-02T02:28:46.210Z,47.6
2023-05-02T02:34:38.301Z,51
2023-05-02T02:40:29.762Z,52.1
2023-05-02T02:46:21.616Z,54.9
2023-05-02T02:52:13.027Z,60.9
2023-05-02T02:58:05.339Z,58.1
2023-05-02T03:03:57.845Z,60.9
2023-05-02T03:09:49.959Z,61.8
2023-05-02T03:15:42.723Z,56.7
2023-05-02T03:21:36.641Z,47.9
2023-05-02T03:27:28.086Z,44.7
2023-05-02T03:33:21.589Z,42.7
2023-05-02T03:39:13.916Z,43.6
2023-05-02T03:45:06.397Z,42.3
2023-05-02T03:50:57.955Z,44.1
2023-05-02T03:56:49.642Z,45
2023-05-02T04:02:42.740Z,39.9
2023-05-02T04:08:34.850Z,44.8
2023-05-02T04:14:28.386Z,42.2
2023-05-02T04:20:20.323Z,39.4
2023-05-02T04:26:12.795Z,40.5
2023-05-02T04:32:09.190Z,43.7
2023-05-02T04:38:01.122Z,43.5
2023-05-02T04:43:53.207Z,46
2023-05-02T04:49:45.487Z,49
2023-05-02T04:55:37.773Z,46.2
2023-05-02T05:01:29.990Z,40
2023-05-02T05:07:21.962Z,39.4
2023-05-02T05:13:14.250Z,37.5
2023-05-02T05:19:06.326Z,37.5
2023-05-02T05:24:58.854Z,35.7
2023-05-02T05:30:50.827Z,40.6
2023-05-02T05:36:42.801Z,40.8
2023-05-02T05:42:34.945Z,39.5
2023-05-02T05:48:26.718Z,42.3
2023-05-02T05:54:19.737Z,46
2023-05-02T06:00:11.691Z,47.6
2023-05-02T06:06:05.619Z,45.2
2023-05-02T06:11:58.747Z,50.2
2023-05-02T06:17:50.628Z,47.7
2023-05-02T06:23:43.034Z,48.9
2023-05-02T06:29:36.632Z,46
2023-05-02T06:35:29.981Z,43.5
2023-05-02T06:41:24.478Z,40.9
2023-05-02T06:47:15.007Z,35.3
2023-05-02T06:53:06.481Z,35.8
2023-05-02T06:58:58.309Z,33.3
2023-05-02T07:04:51.717Z,31.2
2023-05-02T07:10:44.259Z,28.9
2023-05-02T07:16:36.965Z,27.3
2023-05-02T07:22:28.780Z,27.1
2023-05-02T07:28:18.944Z,28.2
2023-05-02T07:34:11.223Z,26.8
2023-05-02T07:40:06.085Z,25.3
2023-05-02T07:46:00.558Z,25.9
2023-05-02T07:51:52.624Z,24.8
2023-05-02T07:57:44.699Z,22.5
2023-05-02T08:03:39.869Z,22.3
2023-05-02T08:09:33.666Z,21.4
2023-05-02T08:15:26.557Z,22.5
2023-05-02T08:21:18.019Z,23.4
2023-05-02T08:27:09.844Z,22.9
2023-05-02T08:33:05.390Z,23.6
2023-05-02T08:38:57.102Z,21
2023-05-02T08:44:49.500Z,20.9
2023-05-02T08:50:42.220Z,20.2
2023-05-02T08:56:34.892Z,19.9
2023-05-02T09:02:27.990Z,20
2023-05-02T09:08:19.769Z,16.5
2023-05-02T09:14:11.717Z,20.3
2023-05-02T09:20:03.815Z,26
2023-05-02T09:25:55.549Z,27.6
2023-05-02T09:32:01.431Z,26.1
2023-05-02T09:37:50.837Z,25.9
2023-05-02T09:43:41.611Z,25.5
2023-05-02T09:49:32.344Z,24.9
2023-05-02T09:55:22.950Z,24.7
2023-05-02T10:01:13.470Z,24.7
2023-05-02T10:07:05.382Z,23.8
2023-05-02T10:12:58.969Z,22.7
2023-05-02T10:18:50.475Z,21.9
2023-05-02T10:24:42.324Z,22.5
2023-05-02T10:30:36.980Z,17.2
2023-05-02T10:36:28.686Z,11
2023-05-02T10:42:20.364Z,11.3
2023-05-02T10:48:12.201Z,15.1
2023-05-02T10:54:09.327Z,15.8
2023-05-02T11:00:01.860Z,17.8
2023-05-02T11:05:53.474Z,18
2023-05-02T11:11:46.298Z,19
2023-05-02T11:17:38.172Z,21.2
2023-05-02T11:23:32.663Z,20.1
2023-05-02T11:29:27.448Z,19.2
2023-05-02T11:35:19.523Z,20.4
2023-05-02T11:41:11.317Z,21.1
2023-05-02T11:47:04.036Z,20.3
2023-05-02T11:53:10.510Z,19.2
2023-05-02T11:59:28.188Z,18.8
2023-05-02T12:05:17.662Z,18.1
2023-05-02T12:11:09.254Z,17.5
2023-05-02T12:17:00.340Z,15.6
2023-05-02T12:22:52.121Z,17.1
2023-05-02T12:28:43.763Z,17.2
2023-05-02T12:34:36.033Z,16.5
2023-05-02T12:40:28.882Z,15.8
2023-05-02T12:46:20.569Z,14.5
2023-05-02T12:52:12.454Z,14.3
2023-05-02T12:58:03.795Z,15
2023-05-02T13:03:56.067Z,17.1
2023-05-02T13:09:47.051Z,17.4
2023-05-02T13:15:38.036Z,17
2023-05-02T13:21:29.199Z,15.9
2023-05-02T13:27:19.594Z,12.7
2023-05-02T13:33:12.157Z,12.3
2023-05-02T13:39:01.667Z,10.8
2023-05-02T13:44:51.155Z,8.7
2023-05-02T13:50:41.202Z,7.2
2023-05-02T13:56:31.758Z,6.9
2023-05-02T14:02:22.827Z,6.9
2023-05-02T14:08:13.932Z,7.8
2023-05-02T14:14:05.209Z,7.5
2023-05-02T14:19:58.889Z,9.1
2023-05-02T14:25:50.153Z,10.4
2023-05-02T14:31:43.024Z,9.8
2023-05-02T14:37:37.303Z,10.3
2023-05-02T14:43:28.778Z,10.1
2023-05-02T14:49:20.536Z,9.5
2023-05-02T14:55:13.715Z,9.2
2023-05-02T15:01:06.263Z,9.2
2023-05-02T15:06:59.183Z,9.2
2023-05-02T15:12:52.562Z,9.1
2023-05-02T15:18:44.596Z,10.1
2023-05-02T15:24:38.007Z,9.6
2023-05-02T15:30:30.939Z,8.1
2023-05-02T15:36:22.165Z,8
2023-05-02T15:42:14.392Z,7.6
2023-05-02T15:48:07.534Z,7.5
2023-05-02T15:53:59.822Z,7.8
2023-05-02T16:01:03.396Z,7.8
2023-05-02T16:06:56.618Z,9.4
2023-05-02T16:12:49.951Z,8.1
2023-05-02T16:18:43.898Z,7.9
2023-05-02T16:24:38.337Z,7.1
2023-05-02T16:30:31.436Z,7.4
2023-05-02T16:36:26.476Z,8
2023-05-02T16:42:27.541Z,7
2023-05-02T16:48:30.601Z,6.9
2023-05-02T16:54:22.432Z,6.6
2023-05-02T17:00:16.747Z,6.3
2023-05-02T17:06:09.973Z,6.3
2023-05-02T17:12:04.929Z,6.4
2023-05-02T17:17:59.164Z,6.1
2023-05-02T17:23:50.563Z,6.9
2023-05-02T17:29:43.639Z,6.2
2023-05-02T17:35:35.045Z,5.7
2023-05-02T17:41:28.450Z,6.8
2023-05-02T17:47:24.744Z,6.2
2023-05-02T17:53:16.415Z,6.4
2023-05-02T17:59:07.137Z,6.9
2023-05-02T18:05:00.730Z,6.6
2023-05-02T18:11:00.485Z,6.8
2023-05-02T18:16:50.971Z,6.8
2023-05-02T18:22:46.695Z,7.1
2023-05-02T18:28:50.556Z,7.6
2023-05-02T18:34:49.876Z,7.2
2023-05-02T18:40:52.837Z,7.3
2023-05-02T18:46:52.767Z,6.8
2023-05-02T18:52:44.136Z,6.5
2023-05-02T18:58:35.137Z,6.7
2023-05-02T19:04:28.074Z,7.3
2023-05-02T19:10:21.496Z,7.2
2023-05-02T19:16:14.782Z,7.7
2023-05-02T19:22:05.521Z,7.7
2023-05-02T19:27:57.876Z,8.3
2023-05-02T19:33:46.722Z,7.8
2023-05-02T19:39:42.019Z,7.9
2023-05-02T19:45:34.932Z,7.7
2023-05-02T19:51:25.505Z,9.5
2023-05-02T19:57:17.397Z,20
2023-05-02T20:03:16.978Z,18.4
2023-05-02T20:09:07.068Z,9.2
2023-05-02T20:14:57.750Z,7.3
2023-05-02T20:20:48.403Z,6.6
2023-05-02T20:26:41.277Z,7.1
2023-05-02T20:32:34.155Z,8.1
2023-05-02T20:38:31.710Z,8.2
2023-05-02T20:44:25.412Z,8.2
2023-05-02T20:50:19.564Z,7.7
2023-05-02T20:56:13.689Z,10.1
2023-05-02T21:02:06.809Z,15.1
2023-05-02T21:07:59.845Z,11.3
2023-05-02T21:13:51.337Z,9.6
2023-05-02T21:19:42.626Z,14.4
2023-05-02T21:25:36.815Z,12.1
2023-05-02T21:31:27.830Z,10.6
2023-05-02T21:37:21.880Z,10.7
2023-05-02T21:43:12.427Z,10.4
2023-05-02T21:49:04.929Z,10.4
2023-05-02T21:54:56.795Z,9.4
2023-05-02T22:00:49.323Z,9.8
2023-05-02T22:06:41.906Z,9.7
2023-05-02T22:12:33.056Z,9.4
2023-05-02T22:18:25.804Z,9.7
2023-05-02T22:24:16.739Z,9.3
2023-05-02T22:30:10.402Z,9.5
2023-05-02T22:36:00.801Z,9.6
2023-05-02T22:41:52.428Z,10.3
2023-05-02T22:47:46.460Z,10.2
2023-05-02T22:53:37.837Z,10.4
2023-05-02T22:59:29.584Z,9.7
2023-05-02T23:05:24.047Z,9.3
2023-05-02T23:11:14.892Z,9
2023-05-02T23:17:05.897Z,10.2
2023-05-02T23:22:57.795Z,10.3
2023-05-02T23:28:48.942Z,10.2
2023-05-02T23:34:40.413Z,11.1
2023-05-02T23:40:36.396Z,11.6
2023-05-02T23:46:26.101Z,11.1
2023-05-02T23:52:16.985Z,11.5
2023-05-02T23:58:08.361Z,11.1
